Time;durP1;ratioP1;P1;durP2;ratioP2;P2;SDS_P1;SDS_P2;PMS_P1;PMS_P2;Temp;Humidity;BMP_temperature;BMP_pressure;BME280_temperature;BME280_humidity;BME280_pressure;Samples;Min_cycle;Max_cycle;Signal;HPM_P1;HPM_P2
2022/04/10 00:02:06;;;;;;;2.20;1.67;;;;;;;4.41;81.57;98845.69;4991234;28;103208;-70
2022/04/10 00:04:34;;;;;;;4.57;2.30;;;;;;;4.29;82.49;98848.88;5012689;28;102672;-71
2022/04/10 00:07:02;;;;;;;2.87;2.03;;;;;;;4.33;82.07;98848.66;5012013;28;103200;-71
2022/04/10 00:09:30;;;;;;;3.17;1.93;;;;;;;4.29;82.26;98844.50;5008449;28;103752;-66
2022/04/10 00:11:58;;;;;;;4.83;2.80;;;;;;;4.18;82.52;98849.38;5013477;28;104202;-67
2022/04/10 00:14:26;;;;;;;3.13;1.53;;;;;;;4.39;81.32;98844.94;5012999;28;102698;-67
2022/04/10 00:16:56;;;;;;;3.50;2.30;;;;;;;4.36;82.29;98847.69;5008554;28;102619;-71
2022/04/10 00:19:24;;;;;;;3.13;2.07;;;;;;;4.43;81.83;98846.50;5012917;28;104010;-66
2022/04/10 00:21:52;;;;;;;3.00;2.20;;;;;;;4.46;80.95;98851.59;5003704;28;103340;-66
2022/04/10 00:24:20;;;;;;;4.20;2.03;;;;;;;4.39;81.92;98851.00;5008346;28;102807;-66
2022/04/10 00:26:48;;;;;;;3.40;2.17;;;;;;;4.40;81.39;98851.88;5005149;28;102708;-67
2022/04/10 00:29:17;;;;;;;3.70;2.13;;;;;;;4.41;81.63;98854.41;5011805;28;103228;-66
2022/04/10 00:31:45;;;;;;;2.53;1.90;;;;;;;4.51;81.04;98844.38;4995205;28;104152;-71
2022/04/10 00:34:14;;;;;;;3.77;2.20;;;;;;;4.37;81.30;98852.00;5008271;28;102799;-67
2022/04/10 00:36:42;;;;;;;3.13;2.40;;;;;;;4.26;82.01;98841.19;4990431;28;102952;-70
2022/04/10 00:39:10;;;;;;;3.47;2.30;;;;;;;4.33;82.23;98847.81;4996322;28;104283;-70
2022/04/10 00:41:39;;;;;;;2.47;1.90;;;;;;;4.38;81.48;98853.72;4992751;28;103588;-69
2022/04/10 00:44:09;;;;;;;5.13;2.70;;;;;;;4.30;81.97;98846.19;5002275;28;102769;-70
2022/04/10 00:46:37;;;;;;;3.90;2.70;;;;;;;4.32;81.46;98853.97;5007992;28;102624;-70
2022/04/10 00:49:06;;;;;;;2.80;2.50;;;;;;;4.28;81.80;98852.41;5007733;28;104414;-70
2022/04/10 00:51:43;;;;;;;3.33;2.50;;;;;;;4.32;81.30;98854.84;5005695;28;103178;-69
2022/04/10 00:54:13;;;;;;;2.87;2.00;;;;;;;4.27;81.78;98850.69;5005844;28;102645;-70
2022/04/10 00:56:43;;;;;;;2.40;2.03;;;;;;;4.34;82.29;98849.53;4987978;28;104104;-70
2022/04/10 00:59:12;;;;;;;3.53;2.40;;;;;;;4.33;81.98;98850.44;4993818;28;104211;-70
2022/04/10 01:01:44;;;;;;;5.80;3.20;;;;;;;4.19;83.11;98858.91;4996286;28;104336;-65
2022/04/10 01:04:32;;;;;;;5.53;3.20;;;;;;;4.02;83.52;98851.78;5000864;28;102690;-66
2022/04/10 01:07:01;;;;;;;2.20;2.00;;;;;;;4.21;82.96;98853.63;5007696;28;103850;-69
2022/04/10 01:09:31;;;;;;;4.37;2.97;;;;;;;4.14;82.39;98854.78;4990630;28;105315;-69
2022/04/10 01:12:00;;;;;;;3.47;2.30;;;;;;;4.22;82.08;98861.38;5011135;28;103406;-70
2022/04/10 01:14:31;;;;;;;4.97;3.10;;;;;;;4.16;82.48;98858.16;5019529;28;102652;-68
2022/04/10 01:17:01;;;;;;;4.50;2.40;;;;;;;4.25;81.74;98863.84;5011651;28;103550;-68
2022/04/10 01:19:31;;;;;;;3.70;2.40;;;;;;;4.28;80.98;98870.72;5016712;27;105026;-69
2022/04/10 01:22:07;;;;;;;4.10;2.77;;;;;;;4.32;79.92;98867.06;4995478;28;105355;-70
2022/04/10 01:24:44;;;;;;;3.20;2.60;;;;;;;4.39;80.76;98876.31;5000619;28;102999;-69
2022/04/10 01:27:16;;;;;;;4.27;2.13;;;;;;;4.48;79.66;98883.75;5001620;28;103628;-69
2022/04/10 01:29:45;;;;;;;4.17;2.60;;;;;;;4.55;80.03;98879.94;4998553;28;103076;-69
2022/04/10 01:32:13;;;;;;;3.90;2.10;;;;;;;4.60;79.22;98888.47;5000269;28;104119;-69
2022/04/10 01:34:41;;;;;;;4.10;2.67;;;;;;;4.61;79.57;98885.75;5010263;28;102622;-69
2022/04/10 01:37:12;;;;;;;2.50;2.00;;;;;;;4.71;79.20;98888.81;5000149;28;102718;-70
2022/04/10 01:39:45;;;;;;;4.80;2.27;;;;;;;4.75;79.64;98885.13;4989034;28;103694;-70
2022/04/10 01:42:16;;;;;;;5.57;2.47;;;;;;;4.66;80.05;98893.38;5001001;28;106129;-70
2022/04/10 01:44:44;;;;;;;5.07;2.50;;;;;;;4.66;79.84;98891.63;5002140;28;102702;-66
2022/04/10 01:47:16;;;;;;;2.73;2.03;;;;;;;4.69;79.94;98893.25;5010083;28;102704;-65
2022/04/10 01:49:44;;;;;;;5.63;2.33;;;;;;;4.70;79.95;98894.97;5009009;28;103912;-66
2022/04/10 01:52:14;;;;;;;3.40;2.53;;;;;;;4.64;80.74;98888.22;5010211;28;103911;-66
2022/04/10 01:54:45;;;;;;;3.10;1.90;;;;;;;4.59;81.35;98887.59;5018183;28;102795;-66
2022/04/10 01:57:13;;;;;;;5.60;3.10;;;;;;;4.48;81.34;98887.22;4989782;28;102628;-65
2022/04/10 01:59:41;;;;;;;4.27;2.37;;;;;;;4.45;81.64;98881.28;4999660;28;105710;-65
2022/04/10 02:02:09;;;;;;;4.80;2.70;;;;;;;4.32;82.02;98890.59;4993571;28;105898;-65
2022/04/10 02:04:38;;;;;;;2.70;2.40;;;;;;;4.45;82.05;98890.00;5008600;28;102801;-66
2022/04/10 02:07:06;;;;;;;2.93;2.17;;;;;;;4.39;82.12;98886.78;4995694;28;102592;-65
2022/04/10 02:09:35;;;;;;;4.47;2.60;;;;;;;4.28;81.82;98883.78;5011800;28;103711;-65
2022/04/10 02:12:06;;;;;;;6.07;3.03;;;;;;;4.23;82.84;98889.25;4994264;28;104416;-65
2022/04/10 02:14:34;;;;;;;4.27;2.33;;;;;;;4.24;82.67;98887.47;4987015;28;103484;-65
2022/04/10 02:17:03;;;;;;;4.47;2.53;;;;;;;4.23;81.96;98880.53;5000286;28;104082;-66
2022/04/10 02:19:31;;;;;;;3.90;2.90;;;;;;;4.14;82.30;98886.16;4998980;28;104400;-66
2022/04/10 02:22:01;;;;;;;3.57;2.20;;;;;;;4.09;82.53;98889.84;4999003;28;104147;-66
2022/04/10 02:24:29;;;;;;;3.80;2.77;;;;;;;4.09;83.07;98884.63;5009514;28;102696;-66
2022/04/10 02:26:57;;;;;;;4.17;2.07;;;;;;;4.07;82.32;98881.19;4994127;28;102764;-66
2022/04/10 02:29:29;;;;;;;2.87;1.97;;;;;;;4.05;82.34;98887.41;4989978;28;104905;-66
2022/04/10 02:31:57;;;;;;;2.17;1.93;;;;;;;4.04;82.81;98881.31;4993283;28;104202;-66
2022/04/10 02:34:25;;;;;;;2.87;2.07;;;;;;;4.01;82.96;98881.44;4994286;28;102593;-66
2022/04/10 02:36:56;;;;;;;2.90;2.50;;;;;;;3.96;83.32;98888.66;5012792;28;103884;-66
2022/04/10 02:39:25;;;;;;;2.67;2.47;;;;;;;3.94;83.02;98885.25;4999882;28;105430;-70
2022/04/10 02:41:53;;;;;;;4.60;2.97;;;;;;;3.87;82.67;98893.44;4992048;28;104390;-70
2022/04/10 02:44:21;;;;;;;5.13;3.10;;;;;;;3.79;83.82;98893.75;5010059;28;102631;-70
2022/04/10 02:46:50;;;;;;;5.30;3.27;;;;;;;3.75;83.80;98899.16;4991351;28;103981;-70
2022/04/10 02:49:20;;;;;;;4.10;3.37;;;;;;;3.74;83.56;98895.69;5009744;28;104070;-71
2022/04/10 02:51:49;;;;;;;6.03;3.10;;;;;;;3.65;84.55;98893.47;5011973;28;103209;-71
2022/04/10 02:54:18;;;;;;;4.03;2.63;;;;;;;3.59;84.51;98898.97;4991086;28;103443;-71
2022/04/10 02:56:45;;;;;;;3.07;2.60;;;;;;;3.58;84.30;98899.88;4992245;28;104088;-71
2022/04/10 02:59:15;;;;;;;3.43;2.87;;;;;;;3.57;84.00;98902.53;4993340;28;104167;-71
2022/04/10 03:01:43;;;;;;;5.53;3.30;;;;;;;3.50;85.03;98894.09;4990186;28;103791;-69
2022/04/10 03:04:13;;;;;;;4.83;2.50;;;;;;;3.44;84.93;98902.19;4996782;28;102742;-71
2022/04/10 03:06:41;;;;;;;4.87;3.00;;;;;;;3.27;86.26;98908.09;5016979;28;102709;-69
2022/04/10 03:09:09;;;;;;;4.93;3.17;;;;;;;3.29;85.91;98911.47;4997450;28;103738;-70
2022/04/10 03:11:38;;;;;;;4.10;3.10;;;;;;;3.34;85.80;98895.66;5006165;28;103191;-70
2022/04/10 03:14:06;;;;;;;4.90;3.50;;;;;;;3.25;85.28;98907.31;5002005;28;102698;-70
2022/04/10 03:16:35;;;;;;;2.93;2.40;;;;;;;3.32;86.17;98903.53;4993252;28;103317;-66
2022/04/10 03:19:03;;;;;;;3.40;2.97;;;;;;;3.34;85.04;98911.31;5001530;28;104148;-66
2022/04/10 03:21:35;;;;;;;3.53;3.23;;;;;;;3.23;85.46;98903.88;4991080;28;102672;-66
2022/04/10 03:24:03;;;;;;;3.87;3.10;;;;;;;3.27;85.54;98907.22;5012933;28;102714;-66
2022/04/10 03:26:33;;;;;;;4.77;3.47;;;;;;;3.16;85.38;98914.63;4990847;28;102685;-66
2022/04/10 03:29:01;;;;;;;6.13;3.27;;;;;;;3.18;86.40;98907.59;4991797;28;103894;-66
2022/04/10 03:31:30;;;;;;;3.33;3.03;;;;;;;3.09;86.15;98910.59;5011181;28;104160;-66
2022/04/10 03:34:00;;;;;;;5.23;3.03;;;;;;;3.13;86.11;98914.75;4991593;28;102792;-69
2022/04/10 03:36:28;;;;;;;3.20;2.50;;;;;;;3.07;86.48;98917.59;5000350;28;102629;-66
2022/04/10 03:38:59;;;;;;;3.73;3.07;;;;;;;3.04;86.26;98920.31;4995927;28;104182;-65
2022/04/10 03:41:29;;;;;;;4.73;3.00;;;;;;;3.06;86.46;98932.41;5011551;28;103181;-66
2022/04/10 03:43:58;;;;;;;4.00;3.47;;;;;;;2.99;86.19;98932.72;4990436;28;102576;-65
2022/04/10 03:46:26;;;;;;;4.50;4.00;;;;;;;2.95;86.45;98937.19;4991526;28;103832;-70
2022/04/10 03:48:56;;;;;;;5.00;3.67;;;;;;;2.95;86.64;98936.38;4998200;28;104205;-69
2022/04/10 03:51:24;;;;;;;5.90;4.30;;;;;;;2.90;86.41;98934.75;4998458;28;103171;-65
2022/04/10 03:53:52;;;;;;;6.73;4.17;;;;;;;2.92;86.68;98938.16;4997968;28;102835;-65
2022/04/10 03:56:22;;;;;;;4.93;3.33;;;;;;;2.80;87.05;98938.63;5014707;28;104760;-70
2022/04/10 03:58:52;;;;;;;3.30;3.00;;;;;;;2.94;87.14;98943.34;5001068;28;103215;-70
2022/04/10 04:01:22;;;;;;;4.37;3.33;;;;;;;2.83;87.34;98943.75;4996235;28;103172;-70
2022/04/10 04:03:53;;;;;;;3.73;3.13;;;;;;;2.96;86.87;98953.72;4996979;28;102640;-71
2022/04/10 04:06:21;;;;;;;4.57;3.73;;;;;;;2.93;86.54;98958.13;4991801;28;103257;-71
2022/04/10 04:08:51;;;;;;;5.80;3.33;;;;;;;2.97;86.61;98960.63;4996511;28;103265;-71
2022/04/10 04:11:19;;;;;;;3.67;2.90;;;;;;;3.01;86.85;98957.84;5012078;28;103232;-71
2022/04/10 04:13:49;;;;;;;6.27;3.83;;;;;;;3.11;86.27;98974.03;4997833;28;102572;-71
2022/04/10 04:16:17;;;;;;;4.13;3.73;;;;;;;3.10;86.98;98967.09;5010978;28;103866;-71
2022/04/10 04:18:45;;;;;;;4.77;4.27;;;;;;;3.10;86.63;98972.31;4991676;28;104187;-71
2022/04/10 04:21:13;;;;;;;4.40;3.87;;;;;;;3.03;87.03;98970.84;4984106;28;102969;-70
2022/04/10 04:23:45;;;;;;;4.20;3.07;;;;;;;3.18;87.16;98975.47;4992653;28;102819;-70
2022/04/10 04:26:13;;;;;;;5.93;4.23;;;;;;;3.22;86.34;98988.38;4992534;28;102762;-66
2022/04/10 04:28:44;;;;;;;4.03;3.40;;;;;;;3.21;86.97;98980.59;4995718;28;105673;-66
2022/04/10 04:31:15;;;;;;;6.77;4.67;;;;;;;3.24;86.42;98990.91;4991896;28;103200;-66
2022/04/10 04:33:43;;;;;;;4.60;3.87;;;;;;;3.23;86.57;98984.00;4994214;28;103010;-70
2022/04/10 04:36:12;;;;;;;5.17;3.80;;;;;;;3.28;86.04;98989.91;5000330;28;103777;-71
2022/04/10 04:38:42;;;;;;;5.30;3.90;;;;;;;3.35;86.56;98989.59;4996177;28;103302;-70
2022/04/10 04:41:12;;;;;;;5.60;3.77;;;;;;;3.33;86.43;98990.56;4997313;28;105362;-70
2022/04/10 04:43:40;;;;;;;6.63;4.53;;;;;;;3.28;86.97;98995.13;4994529;28;102794;-67
2022/04/10 04:46:08;;;;;;;3.73;3.43;;;;;;;3.35;86.82;98999.19;4994114;28;104088;-66
2022/04/10 04:48:38;;;;;;;4.03;3.43;;;;;;;3.44;85.72;98993.63;4997355;28;103738;-66
2022/04/10 04:51:06;;;;;;;4.30;3.90;;;;;;;3.46;86.16;98997.00;4987624;28;105125;-66
2022/04/10 04:53:34;;;;;;;6.07;3.93;;;;;;;3.50;85.75;98998.59;4995857;28;102615;-66
2022/04/10 04:56:02;;;;;;;5.47;4.10;;;;;;;3.43;86.16;99003.19;4995480;28;103191;-70
2022/04/10 04:58:34;;;;;;;5.63;4.20;;;;;;;3.47;86.32;99004.81;4994813;28;105755;-71
2022/04/10 05:01:03;;;;;;;5.17;3.73;;;;;;;3.55;86.05;98999.25;5002677;28;104941;-70
2022/04/10 05:03:35;;;;;;;5.63;4.23;;;;;;;3.58;85.74;99006.13;4992406;28;102711;-70
2022/04/10 05:06:04;;;;;;;5.73;4.07;;;;;;;3.64;86.43;99005.91;5000906;28;102763;-66
2022/04/10 05:08:32;;;;;;;5.03;4.00;;;;;;;3.76;85.64;99021.91;5002258;28;104219;-66
2022/04/10 05:11:03;;;;;;;3.93;3.53;;;;;;;3.81;85.34;99014.78;4992956;28;105413;-65
2022/04/10 05:13:31;;;;;;;4.30;3.10;;;;;;;3.88;84.48;99018.81;5013886;28;102662;-66
2022/04/10 05:15:59;;;;;;;3.73;3.37;;;;;;;3.91;84.97;99026.53;5009641;28;104042;-66
2022/04/10 05:18:37;;;;;;;3.27;2.97;;;;;;;3.97;84.01;99036.75;5000819;28;106097;-66
2022/04/10 05:21:07;;;;;;;4.00;3.60;;;;;;;4.08;84.26;99039.78;4995458;28;103192;-66
2022/04/10 05:23:35;;;;;;;4.20;3.10;;;;;;;4.20;83.54;99037.59;4994694;28;103181;-66
2022/04/10 05:26:17;;;;;;;4.27;3.63;;;;;;;4.28;83.25;99041.59;5002956;28;104021;-67
2022/04/10 05:28:51;;;;;;;4.03;3.20;;;;;;;4.36;83.51;99043.88;4995065;28;104371;-66
2022/04/10 05:31:26;;;;;;;3.17;2.87;;;;;;;4.43;83.07;99051.41;5009042;28;106045;-70
2022/04/10 05:33:54;;;;;;;5.17;4.67;;;;;;;4.47;83.01;99047.75;4991501;28;102605;-70
2022/04/10 05:36:24;;;;;;;4.20;3.70;;;;;;;4.58;82.92;99050.75;5011173;28;103811;-66
2022/04/10 05:38:53;;;;;;;5.20;4.30;;;;;;;4.68;81.54;99051.22;4994614;28;106064;-66
2022/04/10 05:41:24;;;;;;;4.60;3.43;;;;;;;4.57;82.25;99062.16;4994546;28;104278;-66
2022/04/10 05:43:58;;;;;;;3.87;3.57;;;;;;;4.67;81.66;99059.97;4992910;28;102734;-67
2022/04/10 05:46:26;;;;;;;6.20;4.50;;;;;;;4.69;81.44;99064.22;4990204;28;102711;-70
2022/04/10 05:48:58;;;;;;;5.70;5.07;;;;;;;4.63;81.48;99068.91;4987742;28;105110;-70
2022/04/10 05:51:28;;;;;;;3.67;3.13;;;;;;;4.86;81.51;99071.34;4999849;28;105691;-70
2022/04/10 05:53:57;;;;;;;4.20;3.23;;;;;;;4.93;80.93;99069.31;4998716;28;102552;-70
2022/04/10 05:56:26;;;;;;;4.13;3.73;;;;;;;4.99;80.36;99075.16;4999517;28;103026;-70
2022/04/10 05:58:54;;;;;;;4.87;4.40;;;;;;;5.18;79.89;99073.44;4992907;28;103203;-70
2022/04/10 06:01:23;;;;;;;4.20;3.80;;;;;;;5.17;79.33;99081.34;4994889;28;104152;-70
2022/04/10 06:03:53;;;;;;;4.83;4.33;;;;;;;5.33;79.63;99076.28;4996210;28;102674;-69
2022/04/10 06:06:21;;;;;;;3.73;3.40;;;;;;;5.26;79.65;99076.53;4997297;28;103559;-70
2022/04/10 06:08:58;;;;;;;6.00;3.60;;;;;;;5.32;79.13;99082.41;4992964;28;105625;-70
2022/04/10 06:11:28;;;;;;;6.00;3.80;;;;;;;5.33;78.07;99082.38;4989383;28;103052;-67
2022/04/10 06:13:56;;;;;;;5.73;3.43;;;;;;;5.50;78.35;99087.66;4993198;28;102700;-66
2022/04/10 06:16:28;;;;;;;4.70;4.20;;;;;;;5.62;78.01;99087.13;4988700;28;104134;-66
2022/04/10 06:18:57;;;;;;;4.97;4.47;;;;;;;5.51;78.05;99085.91;4991511;28;104375;-66
2022/04/10 06:21:26;;;;;;;5.57;4.33;;;;;;;5.51;77.90;99093.75;5000557;28;105906;-70
2022/04/10 06:23:54;;;;;;;6.07;3.20;;;;;;;5.67;78.06;99092.16;4996426;28;102872;-70
2022/04/10 06:26:29;;;;;;;4.30;3.90;;;;;;;5.79;77.37;99094.19;5003940;28;104014;-70
2022/04/10 06:28:58;;;;;;;4.03;3.67;;;;;;;5.81;76.66;99097.63;5020785;28;103197;-70
2022/04/10 06:31:35;;;;;;;5.33;3.90;;;;;;;5.91;76.61;99096.28;5002035;28;103654;-70
2022/04/10 06:34:05;;;;;;;4.00;3.60;;;;;;;6.03;76.04;99100.09;5002848;28;102626;-69
2022/04/10 06:36:33;;;;;;;5.13;3.67;;;;;;;6.12;76.62;99105.75;5002272;28;103850;-70
2022/04/10 06:39:05;;;;;;;4.50;4.10;;;;;;;6.14;75.86;99098.66;5019572;27;105055;-70
2022/04/10 06:41:36;;;;;;;4.60;3.63;;;;;;;6.39;75.92;99103.56;5019388;27;105383;-66
2022/04/10 06:44:10;;;;;;;4.83;4.40;;;;;;;6.41;75.79;99102.56;4991651;28;102792;-66
2022/04/10 06:46:47;;;;;;;4.27;3.23;;;;;;;6.46;75.07;99104.97;4998283;28;103784;-66
2022/04/10 06:49:26;;;;;;;5.13;4.17;;;;;;;6.57;74.63;99101.81;5014673;28;105089;-66
2022/04/10 06:51:58;;;;;;;4.93;3.70;;;;;;;6.60;74.04;99101.63;4995751;28;103234;-66
2022/04/10 06:54:33;;;;;;;4.63;3.70;;;;;;;6.51;75.17;99110.84;5018840;28;103012;-70
2022/04/10 06:57:02;;;;;;;4.07;2.73;;;;;;;6.69;75.56;99102.03;5002521;28;102729;-70
2022/04/10 06:59:30;;;;;;;4.43;3.33;;;;;;;6.58;74.63;99106.97;5004850;28;103487;-70
2022/04/10 07:02:03;;;;;;;3.83;3.43;;;;;;;6.68;72.91;99112.63;4996267;28;105418;-66
2022/04/10 07:04:31;;;;;;;4.87;3.40;;;;;;;6.67;72.84;99113.56;4995641;28;102678;-66
2022/04/10 07:07:03;;;;;;;4.87;3.73;;;;;;;6.62;72.71;99110.31;4997461;28;102737;-66
2022/04/10 07:09:31;;;;;;;5.10;3.50;;;;;;;6.89;72.13;99104.53;4995538;28;104264;-64
2022/04/10 07:11:59;;;;;;;4.40;3.50;;;;;;;6.91;72.61;99113.16;4997005;28;104019;-65
2022/04/10 07:14:54;;;;;;;3.70;3.27;;;;;;;7.02;71.79;99123.13;5008184;28;103899;-65
2022/04/10 07:17:23;;;;;;;5.23;2.70;;;;;;;7.25;72.48;99122.78;4999298;28;102909;-65
2022/04/10 07:19:56;;;;;;;5.20;2.87;;;;;;;7.49;71.11;99120.66;5000680;28;104414;-65
2022/04/10 07:25:11;;;;;;;7.80;3.73;;;;;;;7.64;69.52;99124.22;4998155;28;102614;-65
2022/04/10 07:27:41;;;;;;;4.40;3.93;;;;;;;7.62;69.00;99115.56;5015527;27;103951;-65
2022/04/10 07:30:39;;;;;;;4.17;3.20;;;;;;;7.83;68.76;99117.06;5010992;28;103191;-65
2022/04/10 07:33:12;;;;;;;3.87;3.50;;;;;;;8.15;67.53;99110.84;4993819;28;104396;-65
2022/04/10 07:35:45;;;;;;;4.13;3.00;;;;;;;8.01;68.92;99126.56;5001101;28;102657;-65
2022/04/10 07:38:21;;;;;;;3.40;3.10;;;;;;;8.19;68.23;99117.66;4998665;28;104003;-65
2022/04/10 07:40:49;;;;;;;4.30;3.47;;;;;;;7.74;65.30;99130.69;4997236;28;104090;-62
2022/04/10 07:43:25;;;;;;;3.43;3.13;;;;;;;8.05;67.16;99125.47;4997476;28;105376;-63
2022/04/10 07:48:56;;;;;;;3.70;3.40;;;;;;;7.56;66.96;99127.28;4999144;28;102722;-64
2022/04/10 07:51:28;;;;;;;5.17;4.10;;;;;;;7.79;65.57;99133.94;5003420;28;104704;-63
2022/04/10 07:54:06;;;;;;;4.73;3.60;;;;;;;7.81;68.13;99130.28;4996919;28;104332;-69
2022/04/10 07:56:34;;;;;;;5.63;3.93;;;;;;;8.07;65.87;99139.38;4992471;28;102874;-69
2022/04/10 07:59:06;;;;;;;4.63;3.43;;;;;;;8.32;64.52;99138.88;4995633;28;104240;-68
2022/04/10 08:01:40;;;;;;;4.07;3.03;;;;;;;8.56;65.60;99143.63;4995918;28;104371;-68
2022/04/10 08:04:12;;;;;;;3.83;3.50;;;;;;;8.47;64.78;99145.94;5016012;27;103636;-69
2022/04/10 08:07:06;;;;;;;5.73;4.00;;;;;;;7.56;64.19;99154.41;5008001;27;102759;-69
2022/04/10 08:09:34;;;;;;;5.17;3.47;;;;;;;7.63;65.75;99157.59;5011174;28;102728;-64
2022/04/10 08:12:03;;;;;;;4.57;3.67;;;;;;;7.94;64.19;99157.59;5015922;28;104051;-69
2022/04/10 08:14:31;;;;;;;6.67;4.00;;;;;;;7.85;64.69;99158.13;5013314;28;103203;-69
2022/04/10 08:17:00;;;;;;;3.97;3.50;;;;;;;8.42;62.54;99156.72;5015485;27;102720;-69
2022/04/10 08:19:31;;;;;;;5.83;3.83;;;;;;;8.43;62.04;99162.84;5016781;28;103182;-69
2022/04/10 08:21:59;;;;;;;5.23;3.63;;;;;;;8.74;62.64;99152.25;4993499;28;104023;-65
2022/04/10 08:24:27;;;;;;;5.67;4.07;;;;;;;9.01;59.26;99157.72;5017746;28;103223;-69
2022/04/10 08:26:55;;;;;;;3.53;3.23;;;;;;;8.96;60.25;99152.69;5014691;28;102578;-65
2022/04/10 08:29:23;;;;;;;5.70;3.83;;;;;;;9.16;58.85;99155.03;5006266;28;103129;-65
2022/04/10 08:31:51;;;;;;;3.90;3.50;;;;;;;9.33;59.96;99161.91;5014281;28;103269;-65
2022/04/10 08:34:21;;;;;;;3.90;3.47;;;;;;;9.34;58.80;99158.34;5018870;28;103174;-65
2022/04/10 08:36:49;;;;;;;5.73;3.77;;;;;;;9.19;59.24;99167.16;5018091;28;102982;-65
2022/04/10 08:39:17;;;;;;;4.30;3.20;;;;;;;9.27;59.04;99172.81;5018255;28;104056;-65
2022/04/10 08:41:47;;;;;;;6.63;3.80;;;;;;;9.27;58.73;99175.47;5012289;28;103332;-66
2022/04/10 08:44:17;;;;;;;4.20;3.37;;;;;;;8.83;58.18;99174.59;5014781;27;103233;-65
2022/04/10 08:46:48;;;;;;;6.23;3.73;;;;;;;8.77;57.69;99174.94;5014356;28;104691;-69
2022/04/10 08:49:17;;;;;;;3.47;2.67;;;;;;;9.51;57.20;99176.66;5013878;28;102589;-69
2022/04/10 08:51:48;;;;;;;3.30;2.93;;;;;;;9.78;55.06;99177.59;5008892;28;103260;-65
2022/04/10 08:54:16;;;;;;;7.57;3.50;;;;;;;9.89;56.41;99167.22;5017940;28;103115;-65
2022/04/10 08:56:44;;;;;;;9.30;3.97;;;;;;;9.88;55.60;99181.34;5008805;28;102950;-65
2022/04/10 08:59:12;;;;;;;3.80;3.50;;;;;;;9.19;54.73;99177.72;5010374;28;103143;-70
2022/04/10 09:01:40;;;;;;;4.83;3.53;;;;;;;9.63;56.28;99177.66;5018359;28;103999;-65
2022/04/10 09:04:08;;;;;;;6.60;4.47;;;;;;;9.21;56.77;99178.47;5018852;28;103206;-71
2022/04/10 09:06:40;;;;;;;5.57;3.60;;;;;;;9.36;58.64;99177.56;5018327;28;102908;-70
2022/04/10 09:09:13;;;;;;;5.07;4.00;;;;;;;8.88;59.11;99177.81;5009814;28;102719;-65
2022/04/10 09:11:41;;;;;;;3.60;3.07;;;;;;;10.53;55.67;99173.72;4989056;28;104947;-71
2022/04/10 09:14:10;;;;;;;4.67;4.23;;;;;;;9.40;57.55;99184.34;5014072;28;103194;-70
2022/04/10 09:16:38;;;;;;;4.53;4.13;;;;;;;10.16;56.99;99179.69;5012087;28;102761;-70
2022/04/10 09:19:08;;;;;;;7.10;6.07;;;;;;;8.46;59.48;99179.31;5011055;27;102740;-71
2022/04/10 09:21:38;;;;;;;7.47;4.87;;;;;;;9.55;59.54;99182.56;5013685;28;103926;-70
2022/04/10 09:24:07;;;;;;;6.17;4.33;;;;;;;9.48;57.51;99178.63;5014320;27;103172;-70
2022/04/10 09:26:48;;;;;;;5.07;4.20;;;;;;;8.94;57.18;99180.09;5020263;28;102678;-71
2022/04/10 09:29:17;;;;;;;3.90;3.50;;;;;;;10.14;56.29;99178.91;5005240;28;102936;-71
2022/04/10 09:31:46;;;;;;;5.60;3.83;;;;;;;10.83;54.77;99174.41;5020195;28;104139;-70
2022/04/10 09:34:15;;;;;;;6.20;4.20;;;;;;;10.14;54.55;99177.13;5021539;28;103303;-71
2022/04/10 09:37:06;;;;;;;5.37;4.20;;;;;;;10.10;54.98;99174.75;5021966;28;102690;-66
2022/04/10 09:39:35;;;;;;;4.87;4.10;;;;;;;11.62;52.92;99174.31;5004543;28;102741;-66
2022/04/10 09:42:07;;;;;;;6.43;4.50;;;;;;;10.09;53.14;99167.75;5002849;28;103245;-66
2022/04/10 09:44:36;;;;;;;4.20;3.60;;;;;;;10.92;50.54;99159.69;5009731;28;103188;-66
2022/04/10 09:47:09;;;;;;;7.20;4.70;;;;;;;9.54;53.64;99170.34;5001436;28;102669;-66
2022/04/10 09:49:39;;;;;;;4.37;3.90;;;;;;;10.31;51.93;99168.13;5021010;28;102995;-66
2022/04/10 09:52:08;;;;;;;5.83;3.20;;;;;;;11.14;52.07;99169.72;5018498;28;103216;-66
2022/04/10 09:54:39;;;;;;;4.93;4.03;;;;;;;10.86;53.18;99166.22;5022113;28;103247;-66
2022/04/10 09:57:11;;;;;;;4.90;3.90;;;;;;;9.62;52.04;99168.94;5021581;28;102629;-66
2022/04/10 09:59:42;;;;;;;7.20;3.70;;;;;;;9.12;53.71;99168.47;5019834;28;102766;-66
2022/04/10 10:02:12;;;;;;;4.30;3.90;;;;;;;8.88;54.53;99172.53;5020737;28;103293;-71
2022/04/10 10:04:41;;;;;;;4.87;3.20;;;;;;;8.89;54.28;99161.06;5021364;28;103258;-71
2022/04/10 10:07:11;;;;;;;5.07;2.90;;;;;;;9.34;53.57;99163.63;5021054;28;102703;-71
2022/04/10 10:09:42;;;;;;;4.10;3.07;;;;;;;10.01;52.57;99160.34;5021603;28;103950;-71
2022/04/10 10:12:13;;;;;;;6.10;3.47;;;;;;;9.95;53.87;99167.78;5002669;28;103305;-72
2022/04/10 10:14:41;;;;;;;6.50;3.40;;;;;;;9.43;54.78;99165.69;5017412;28;103261;-71
2022/04/10 10:17:10;;;;;;;3.93;3.50;;;;;;;9.49;55.58;99173.22;5021940;28;102885;-72
2022/04/10 10:19:42;;;;;;;3.50;3.17;;;;;;;9.69;54.77;99170.25;5000926;28;103827;-66
2022/04/10 10:22:12;;;;;;;5.07;3.30;;;;;;;9.52;54.85;99183.59;5020971;28;103691;-66
2022/04/10 10:24:50;;;;;;;4.80;3.40;;;;;;;9.18;58.26;99183.91;5004626;28;103624;-66
2022/04/10 10:27:36;;;;;;;5.03;3.40;;;;;;;8.31;60.05;99208.28;5003482;28;102678;-66
2022/04/10 10:30:18;;;;;;;5.20;3.53;;;;;;;8.22;63.74;99192.97;4997547;27;102746;-66
2022/04/10 10:32:49;;;;;;;4.53;3.43;;;;;;;8.00;65.03;99198.56;5002868;28;103428;-67
2022/04/10 10:35:34;;;;;;;3.90;3.50;;;;;;;8.54;63.70;99195.53;5003382;28;104175;-72
2022/04/10 10:38:02;;;;;;;6.10;3.73;;;;;;;8.37;64.47;99194.75;5019073;28;102709;-71
2022/04/10 10:40:31;;;;;;;8.03;4.87;;;;;;;8.56;62.15;99185.75;5003606;28;103061;-71
2022/04/10 10:43:04;;;;;;;5.83;4.37;;;;;;;9.57;61.51;99194.72;4992581;28;105113;-71
2022/04/10 10:45:35;;;;;;;5.07;4.10;;;;;;;9.93;60.27;99194.28;5001687;28;104172;-66
2022/04/10 10:48:25;;;;;;;6.13;3.83;;;;;;;10.37;58.02;99186.22;5020786;28;102651;-66
2022/04/10 10:50:54;;;;;;;5.97;4.33;;;;;;;10.44;58.37;99184.91;5000304;28;104037;-66
2022/04/10 10:53:43;;;;;;;6.33;4.13;;;;;;;10.37;55.75;99187.09;5015802;28;104046;-71
2022/04/10 10:56:15;;;;;;;6.10;4.80;;;;;;;10.38;58.51;99193.22;5019990;28;103242;-66
2022/04/10 10:59:21;;;;;;;4.90;3.83;;;;;;;10.18;56.35;99180.44;5017592;28;103155;-66
2022/04/10 11:01:55;;;;;;;4.60;3.27;;;;;;;9.68;54.66;99186.19;5020837;28;103915;-66
2022/04/10 11:04:28;;;;;;;3.07;2.40;;;;;;;10.21;54.90;99193.44;5019234;28;103894;-65
2022/04/10 11:07:11;;;;;;;3.13;1.97;;;;;;;9.98;53.91;99186.06;5017956;28;103230;-68
2022/04/10 11:09:54;;;;;;;2.03;1.73;;;;;;;10.68;52.02;99175.38;5018131;28;102648;-71
2022/04/10 11:12:24;;;;;;;3.73;2.20;;;;;;;10.71;50.36;99172.53;5019785;28;102631;-71
2022/04/10 11:14:56;;;;;;;3.03;2.23;;;;;;;10.47;51.06;99168.84;5004515;28;104233;-63
2022/04/10 11:17:28;;;;;;;3.90;2.20;;;;;;;10.87;51.17;99173.22;5003117;28;104283;-64
2022/04/10 11:19:58;;;;;;;2.80;2.10;;;;;;;11.79;49.80;99173.19;5020983;28;102685;-64
2022/04/10 11:22:33;;;;;;;3.20;2.43;;;;;;;11.91;49.05;99157.25;5004641;28;102756;-70
2022/04/10 11:25:05;;;;;;;4.57;2.77;;;;;;;11.80;48.34;99154.53;5020769;28;103228;-63
2022/04/10 11:27:45;;;;;;;4.27;2.67;;;;;;;11.20;51.33;99167.47;5023057;28;103184;-63
2022/04/10 11:30:16;;;;;;;3.80;2.97;;;;;;;11.71;50.05;99160.44;5019977;28;102702;-64
2022/04/10 11:32:46;;;;;;;3.77;3.37;;;;;;;11.77;50.04;99162.69;5003649;28;102644;-70
2022/04/10 11:35:25;;;;;;;3.87;3.07;;;;;;;10.95;53.82;99165.63;5021159;28;104012;-71
2022/04/10 11:37:55;;;;;;;5.53;3.40;;;;;;;10.50;52.29;99158.06;5021537;28;103201;-71
2022/04/10 11:40:31;;;;;;;4.10;2.87;;;;;;;11.70;52.61;99157.94;5021822;28;103009;-64
2022/04/10 11:43:02;;;;;;;5.00;3.33;;;;;;;12.09;49.23;99149.81;4997270;28;103616;-71
2022/04/10 11:45:33;;;;;;;5.13;3.73;;;;;;;12.03;47.92;99150.25;5001125;28;104379;-64
2022/04/10 11:48:04;;;;;;;5.13;3.40;;;;;;;11.52;50.39;99144.13;5021838;28;103211;-71
2022/04/10 11:50:32;;;;;;;4.13;3.53;;;;;;;12.91;50.34;99126.06;5020314;28;102865;-64
2022/04/10 11:53:02;;;;;;;4.97;4.17;;;;;;;11.82;49.79;99131.44;5021867;28;104132;-63
2022/04/10 11:55:32;;;;;;;4.70;3.87;;;;;;;11.77;50.20;99128.25;5020954;28;104059;-64